sensor_id;sensor_type;location;lat;lon;timestamp;P1;durP1;ratioP1;P2;durP2;ratioP2
56680;SDS011;42558;52.388;13.390;2023-07-09T00:02:27;9.69;;;6.08;;
56680;SDS011;42558;52.388;13.390;2023-07-09T00:04:56;15.39;;;5.70;;
56680;SDS011;42558;52.388;13.390;2023-07-09T00:07:28;13.68;;;6.27;;
56680;SDS011;42558;52.388;13.390;2023-07-09T00:09:59;10.64;;;6.65;;
56680;SDS011;42558;52.388;13.390;2023-07-09T00:12:29;11.78;;;6.27;;
56680;SDS011;42558;52.388;13.390;2023-07-09T00:14:59;12.35;;;6.08;;
56680;SDS011;42558;52.388;13.390;2023-07-09T00:17:31;10.07;;;6.27;;
56680;SDS011;42558;52.388;13.390;2023-07-09T00:20:03;11.21;;;6.65;;
56680;SDS011;42558;52.388;13.390;2023-07-09T00:22:41;14.06;;;6.65;;
56680;SDS011;42558;52.388;13.390;2023-07-09T00:25:20;12.16;;;6.46;;
56680;SDS011;42558;52.388;13.390;2023-07-09T00:27:50;12.92;;;6.27;;
56680;SDS011;42558;52.388;13.390;2023-07-09T00:30:23;9.31;;;5.89;;
56680;SDS011;42558;52.388;13.390;2023-07-09T00:32:53;11.02;;;6.46;;
56680;SDS011;42558;52.388;13.390;2023-07-09T00:35:23;14.06;;;7.03;;
56680;SDS011;42558;52.388;13.390;2023-07-09T00:37:54;9.31;;;5.89;;
56680;SDS011;42558;52.388;13.390;2023-07-09T00:40:24;13.68;;;6.65;;
56680;SDS011;42558;52.388;13.390;2023-07-09T00:42:55;11.78;;;6.84;;
56680;SDS011;42558;52.388;13.390;2023-07-09T00:45:27;10.64;;;6.27;;
56680;SDS011;42558;52.388;13.390;2023-07-09T00:48:01;11.78;;;6.46;;
56680;SDS011;42558;52.388;13.390;2023-07-09T00:50:46;11.78;;;6.08;;
56680;SDS011;42558;52.388;13.390;2023-07-09T00:53:27;11.40;;;6.27;;
56680;SDS011;42558;52.388;13.390;2023-07-09T00:56:08;10.07;;;6.46;;
56680;SDS011;42558;52.388;13.390;2023-07-09T00:58:43;10.83;;;5.70;;
56680;SDS011;42558;52.388;13.390;2023-07-09T01:01:18;11.40;;;6.27;;
56680;SDS011;42558;52.388;13.390;2023-07-09T01:03:52;10.26;;;6.46;;
56680;SDS011;42558;52.388;13.390;2023-07-09T01:06:36;9.69;;;5.89;;
56680;SDS011;42558;52.388;13.390;2023-07-09T01:09:09;10.64;;;6.84;;
56680;SDS011;42558;52.388;13.390;2023-07-09T01:11:39;11.02;;;7.03;;
56680;SDS011;42558;52.388;13.390;2023-07-09T01:14:11;11.59;;;6.08;;
56680;SDS011;42558;52.388;13.390;2023-07-09T01:16:52;11.40;;;6.08;;
56680;SDS011;42558;52.388;13.390;2023-07-09T01:19:35;13.68;;;6.08;;
56680;SDS011;42558;52.388;13.390;2023-07-09T01:22:15;11.40;;;6.65;;
56680;SDS011;42558;52.388;13.390;2023-07-09T01:25:04;11.40;;;6.65;;
56680;SDS011;42558;52.388;13.390;2023-07-09T01:27:40;12.54;;;6.27;;
56680;SDS011;42558;52.388;13.390;2023-07-09T01:32:44;11.78;;;6.08;;
56680;SDS011;42558;52.388;13.390;2023-07-09T01:35:19;10.64;;;6.27;;
56680;SDS011;42558;52.388;13.390;2023-07-09T01:37:51;9.88;;;6.65;;
56680;SDS011;42558;52.388;13.390;2023-07-09T01:40:23;11.78;;;6.84;;
56680;SDS011;42558;52.388;13.390;2023-07-09T01:43:03;10.45;;;6.46;;
56680;SDS011;42558;52.388;13.390;2023-07-09T01:45:36;10.45;;;6.46;;
56680;SDS011;42558;52.388;13.390;2023-07-09T01:48:07;12.73;;;6.65;;
56680;SDS011;42558;52.388;13.390;2023-07-09T01:50:43;11.78;;;7.22;;
56680;SDS011;42558;52.388;13.390;2023-07-09T01:53:14;10.07;;;6.46;;
56680;SDS011;42558;52.388;13.390;2023-07-09T01:55:46;10.83;;;7.03;;
56680;SDS011;42558;52.388;13.390;2023-07-09T01:58:16;10.26;;;6.84;;
56680;SDS011;42558;52.388;13.390;2023-07-09T02:00:46;10.64;;;7.03;;
56680;SDS011;42558;52.388;13.390;2023-07-09T02:03:16;10.64;;;7.22;;
56680;SDS011;42558;52.388;13.390;2023-07-09T02:05:47;12.16;;;7.03;;
56680;SDS011;42558;52.388;13.390;2023-07-09T02:08:16;10.64;;;6.84;;
56680;SDS011;42558;52.388;13.390;2023-07-09T02:10:50;12.35;;;6.84;;
56680;SDS011;42558;52.388;13.390;2023-07-09T02:13:18;12.35;;;7.03;;
56680;SDS011;42558;52.388;13.390;2023-07-09T02:15:47;11.97;;;7.03;;
56680;SDS011;42558;52.388;13.390;2023-07-09T02:18:17;15.39;;;7.22;;
56680;SDS011;42558;52.388;13.390;2023-07-09T02:20:48;12.92;;;6.84;;
56680;SDS011;42558;52.388;13.390;2023-07-09T02:23:17;10.83;;;7.22;;
56680;SDS011;42558;52.388;13.390;2023-07-09T02:25:47;11.21;;;7.22;;
56680;SDS011;42558;52.388;13.390;2023-07-09T02:28:18;11.02;;;7.41;;
56680;SDS011;42558;52.388;13.390;2023-07-09T02:30:46;10.07;;;7.41;;
56680;SDS011;42558;52.388;13.390;2023-07-09T02:33:14;11.40;;;7.22;;
56680;SDS011;42558;52.388;13.390;2023-07-09T02:35:43;12.73;;;7.03;;
56680;SDS011;42558;52.388;13.390;2023-07-09T02:38:11;10.45;;;7.22;;
56680;SDS011;42558;52.388;13.390;2023-07-09T02:40:40;15.01;;;7.98;;
56680;SDS011;42558;52.388;13.390;2023-07-09T02:43:09;11.02;;;7.22;;
56680;SDS011;42558;52.388;13.390;2023-07-09T02:45:37;10.64;;;6.46;;
56680;SDS011;42558;52.388;13.390;2023-07-09T02:48:05;11.02;;;6.65;;
56680;SDS011;42558;52.388;13.390;2023-07-09T02:50:34;16.53;;;7.60;;
56680;SDS011;42558;52.388;13.390;2023-07-09T02:53:02;10.07;;;7.22;;
56680;SDS011;42558;52.388;13.390;2023-07-09T02:55:31;12.16;;;8.17;;
56680;SDS011;42558;52.388;13.390;2023-07-09T02:57:59;11.40;;;7.41;;
56680;SDS011;42558;52.388;13.390;2023-07-09T03:00:28;11.40;;;7.60;;
56680;SDS011;42558;52.388;13.390;2023-07-09T03:02:56;10.45;;;7.60;;
56680;SDS011;42558;52.388;13.390;2023-07-09T03:05:24;12.92;;;7.60;;
56680;SDS011;42558;52.388;13.390;2023-07-09T03:07:53;11.40;;;7.03;;
56680;SDS011;42558;52.388;13.390;2023-07-09T03:10:21;10.83;;;7.60;;
56680;SDS011;42558;52.388;13.390;2023-07-09T03:12:50;11.21;;;7.60;;
56680;SDS011;42558;52.388;13.390;2023-07-09T03:15:18;12.92;;;8.55;;
56680;SDS011;42558;52.388;13.390;2023-07-09T03:17:47;13.68;;;7.98;;
56680;SDS011;42558;52.388;13.390;2023-07-09T03:20:15;12.92;;;8.17;;
56680;SDS011;42558;52.388;13.390;2023-07-09T03:22:44;11.59;;;7.41;;
56680;SDS011;42558;52.388;13.390;2023-07-09T03:25:12;11.40;;;7.60;;
56680;SDS011;42558;52.388;13.390;2023-07-09T03:27:40;10.07;;;7.98;;
56680;SDS011;42558;52.388;13.390;2023-07-09T03:30:10;10.83;;;7.98;;
56680;SDS011;42558;52.388;13.390;2023-07-09T03:32:41;12.92;;;8.74;;
56680;SDS011;42558;52.388;13.390;2023-07-09T03:35:12;14.63;;;8.74;;
56680;SDS011;42558;52.388;13.390;2023-07-09T03:37:42;12.35;;;7.60;;
56680;SDS011;42558;52.388;13.390;2023-07-09T03:40:23;13.87;;;8.74;;
56680;SDS011;42558;52.388;13.390;2023-07-09T03:42:52;11.59;;;8.36;;
56680;SDS011;42558;52.388;13.390;2023-07-09T03:45:21;13.49;;;9.12;;
56680;SDS011;42558;52.388;13.390;2023-07-09T03:47:49;11.21;;;8.36;;
56680;SDS011;42558;52.388;13.390;2023-07-09T03:50:18;11.97;;;8.36;;
56680;SDS011;42558;52.388;13.390;2023-07-09T03:52:46;13.49;;;8.93;;
56680;SDS011;42558;52.388;13.390;2023-07-09T03:55:14;11.59;;;8.36;;
56680;SDS011;42558;52.388;13.390;2023-07-09T03:57:43;14.06;;;8.93;;
56680;SDS011;42558;52.388;13.390;2023-07-09T04:00:12;13.87;;;8.93;;
56680;SDS011;42558;52.388;13.390;2023-07-09T04:02:42;16.15;;;8.36;;
56680;SDS011;42558;52.388;13.390;2023-07-09T04:05:14;12.16;;;8.36;;
56680;SDS011;42558;52.388;13.390;2023-07-09T04:07:43;12.35;;;8.36;;
56680;SDS011;42558;52.388;13.390;2023-07-09T04:10:11;12.73;;;9.12;;
56680;SDS011;42558;52.388;13.390;2023-07-09T04:12:39;14.06;;;9.12;;
56680;SDS011;42558;52.388;13.390;2023-07-09T04:15:08;11.59;;;8.55;;
56680;SDS011;42558;52.388;13.390;2023-07-09T04:17:36;13.87;;;8.74;;
56680;SDS011;42558;52.388;13.390;2023-07-09T04:20:06;12.54;;;8.93;;
56680;SDS011;42558;52.388;13.390;2023-07-09T04:22:37;12.92;;;8.55;;
56680;SDS011;42558;52.388;13.390;2023-07-09T04:25:09;12.16;;;8.55;;
56680;SDS011;42558;52.388;13.390;2023-07-09T04:27:39;12.35;;;8.17;;
56680;SDS011;42558;52.388;13.390;2023-07-09T04:30:13;13.30;;;8.93;;
56680;SDS011;42558;52.388;13.390;2023-07-09T04:32:43;15.01;;;8.74;;
56680;SDS011;42558;52.388;13.390;2023-07-09T04:35:13;13.49;;;8.93;;
56680;SDS011;42558;52.388;13.390;2023-07-09T04:37:43;13.49;;;8.74;;
56680;SDS011;42558;52.388;13.390;2023-07-09T04:40:13;13.11;;;8.74;;
56680;SDS011;42558;52.388;13.390;2023-07-09T04:42:43;14.63;;;8.17;;
56680;SDS011;42558;52.388;13.390;2023-07-09T04:45:13;15.20;;;9.31;;
56680;SDS011;42558;52.388;13.390;2023-07-09T04:47:43;15.20;;;10.07;;
56680;SDS011;42558;52.388;13.390;2023-07-09T04:50:13;16.15;;;8.55;;
56680;SDS011;42558;52.388;13.390;2023-07-09T04:52:43;13.87;;;8.93;;
56680;SDS011;42558;52.388;13.390;2023-07-09T04:55:13;14.25;;;9.12;;
56680;SDS011;42558;52.388;13.390;2023-07-09T04:57:43;15.58;;;9.31;;
56680;SDS011;42558;52.388;13.390;2023-07-09T05:00:13;13.68;;;8.55;;
56680;SDS011;42558;52.388;13.390;2023-07-09T05:02:43;18.43;;;8.93;;
56680;SDS011;42558;52.388;13.390;2023-07-09T05:05:13;14.63;;;9.50;;
56680;SDS011;42558;52.388;13.390;2023-07-09T05:07:44;13.11;;;8.36;;
56680;SDS011;42558;52.388;13.390;2023-07-09T05:10:14;13.30;;;8.74;;
56680;SDS011;42558;52.388;13.390;2023-07-09T05:12:52;11.78;;;8.17;;
56680;SDS011;42558;52.388;13.390;2023-07-09T05:15:22;13.68;;;8.36;;
56680;SDS011;42558;52.388;13.390;2023-07-09T05:17:53;11.78;;;7.60;;
56680;SDS011;42558;52.388;13.390;2023-07-09T05:20:21;14.44;;;8.74;;
56680;SDS011;42558;52.388;13.390;2023-07-09T05:22:49;13.49;;;8.36;;
56680;SDS011;42558;52.388;13.390;2023-07-09T05:25:18;11.97;;;8.55;;
56680;SDS011;42558;52.388;13.390;2023-07-09T05:27:46;11.59;;;7.79;;
56680;SDS011;42558;52.388;13.390;2023-07-09T05:30:15;11.40;;;7.60;;
56680;SDS011;42558;52.388;13.390;2023-07-09T05:32:43;10.64;;;8.17;;
56680;SDS011;42558;52.388;13.390;2023-07-09T05:35:12;11.59;;;8.36;;
56680;SDS011;42558;52.388;13.390;2023-07-09T05:37:40;11.97;;;8.74;;
56680;SDS011;42558;52.388;13.390;2023-07-09T05:40:08;10.64;;;7.79;;
56680;SDS011;42558;52.388;13.390;2023-07-09T05:42:37;12.54;;;7.98;;
56680;SDS011;42558;52.388;13.390;2023-07-09T05:45:06;12.73;;;8.36;;
56680;SDS011;42558;52.388;13.390;2023-07-09T05:47:34;12.16;;;7.98;;
56680;SDS011;42558;52.388;13.390;2023-07-09T05:50:03;14.06;;;8.93;;
56680;SDS011;42558;52.388;13.390;2023-07-09T05:52:30;11.21;;;8.17;;
56680;SDS011;42558;52.388;13.390;2023-07-09T05:54:59;11.59;;;8.93;;
56680;SDS011;42558;52.388;13.390;2023-07-09T05:57:27;11.02;;;7.41;;
56680;SDS011;42558;52.388;13.390;2023-07-09T05:59:56;11.21;;;8.74;;
56680;SDS011;42558;52.388;13.390;2023-07-09T06:02:24;15.20;;;8.36;;
56680;SDS011;42558;52.388;13.390;2023-07-09T06:04:53;11.21;;;7.79;;
56680;SDS011;42558;52.388;13.390;2023-07-09T06:07:21;11.40;;;8.17;;
56680;SDS011;42558;52.388;13.390;2023-07-09T06:09:49;12.16;;;7.98;;
56680;SDS011;42558;52.388;13.390;2023-07-09T06:12:18;11.02;;;7.79;;
56680;SDS011;42558;52.388;13.390;2023-07-09T06:14:46;12.35;;;8.55;;
56680;SDS011;42558;52.388;13.390;2023-07-09T06:17:15;12.54;;;7.60;;
56680;SDS011;42558;52.388;13.390;2023-07-09T06:19:43;10.26;;;7.60;;
56680;SDS011;42558;52.388;13.390;2023-07-09T06:22:12;12.54;;;8.74;;
56680;SDS011;42558;52.388;13.390;2023-07-09T06:24:40;11.78;;;8.17;;
56680;SDS011;42558;52.388;13.390;2023-07-09T06:27:09;12.35;;;8.17;;
56680;SDS011;42558;52.388;13.390;2023-07-09T06:29:37;12.92;;;8.17;;
56680;SDS011;42558;52.388;13.390;2023-07-09T06:32:06;11.78;;;7.60;;
56680;SDS011;42558;52.388;13.390;2023-07-09T06:34:34;11.78;;;7.98;;
56680;SDS011;42558;52.388;13.390;2023-07-09T06:37:02;13.68;;;7.60;;
56680;SDS011;42558;52.388;13.390;2023-07-09T06:39:34;12.73;;;8.74;;
56680;SDS011;42558;52.388;13.390;2023-07-09T06:42:02;10.26;;;8.55;;
56680;SDS011;42558;52.388;13.390;2023-07-09T06:44:34;12.73;;;7.60;;
56680;SDS011;42558;52.388;13.390;2023-07-09T06:47:04;11.97;;;8.36;;
56680;SDS011;42558;52.388;13.390;2023-07-09T06:49:34;11.21;;;7.98;;
56680;SDS011;42558;52.388;13.390;2023-07-09T06:52:04;12.73;;;7.79;;
56680;SDS011;42558;52.388;13.390;2023-07-09T06:54:35;11.02;;;7.60;;
56680;SDS011;42558;52.388;13.390;2023-07-09T06:57:05;10.45;;;7.79;;
56680;SDS011;42558;52.388;13.390;2023-07-09T06:59:35;12.35;;;8.36;;
56680;SDS011;42558;52.388;13.390;2023-07-09T07:02:05;10.83;;;8.17;;
56680;SDS011;42558;52.388;13.390;2023-07-09T07:04:35;14.82;;;8.55;;
56680;SDS011;42558;52.388;13.390;2023-07-09T07:07:05;11.40;;;7.98;;
56680;SDS011;42558;52.388;13.390;2023-07-09T07:09:35;12.73;;;8.17;;
56680;SDS011;42558;52.388;13.390;2023-07-09T07:12:05;10.83;;;7.41;;
56680;SDS011;42558;52.388;13.390;2023-07-09T07:14:35;14.82;;;8.55;;
56680;SDS011;42558;52.388;13.390;2023-07-09T07:17:05;11.59;;;8.36;;
56680;SDS011;42558;52.388;13.390;2023-07-09T07:19:35;13.11;;;8.74;;
56680;SDS011;42558;52.388;13.390;2023-07-09T07:22:05;11.02;;;8.36;;
56680;SDS011;42558;52.388;13.390;2023-07-09T07:24:36;11.97;;;8.93;;
56680;SDS011;42558;52.388;13.390;2023-07-09T07:27:08;10.26;;;7.79;;
56680;SDS011;42558;52.388;13.390;2023-07-09T07:29:38;13.49;;;8.55;;
56680;SDS011;42558;52.388;13.390;2023-07-09T07:32:08;11.59;;;8.17;;
56680;SDS011;42558;52.388;13.390;2023-07-09T07:34:38;10.45;;;8.55;;
56680;SDS011;42558;52.388;13.390;2023-07-09T07:37:08;11.40;;;8.93;;
56680;SDS011;42558;52.388;13.390;2023-07-09T07:39:38;12.16;;;8.55;;
56680;SDS011;42558;52.388;13.390;2023-07-09T07:42:08;12.35;;;8.93;;
56680;SDS011;42558;52.388;13.390;2023-07-09T07:44:38;12.35;;;9.12;;
56680;SDS011;42558;52.388;13.390;2023-07-09T07:47:08;11.40;;;9.31;;
56680;SDS011;42558;52.388;13.390;2023-07-09T07:49:38;12.92;;;8.93;;
56680;SDS011;42558;52.388;13.390;2023-07-09T07:52:08;11.78;;;9.50;;
56680;SDS011;42558;52.388;13.390;2023-07-09T07:54:40;13.87;;;9.69;;
56680;SDS011;42558;52.388;13.390;2023-07-09T07:57:10;13.68;;;9.69;;
56680;SDS011;42558;52.388;13.390;2023-07-09T07:59:40;10.83;;;8.74;;
56680;SDS011;42558;52.388;13.390;2023-07-09T08:02:12;12.35;;;9.31;;
56680;SDS011;42558;52.388;13.390;2023-07-09T08:04:42;12.73;;;9.12;;
56680;SDS011;42558;52.388;13.390;2023-07-09T08:07:12;11.40;;;8.74;;
56680;SDS011;42558;52.388;13.390;2023-07-09T08:09:42;13.87;;;8.55;;
56680;SDS011;42558;52.388;13.390;2023-07-09T08:12:14;11.40;;;9.88;;
56680;SDS011;42558;52.388;13.390;2023-07-09T08:14:45;13.49;;;9.88;;
56680;SDS011;42558;52.388;13.390;2023-07-09T08:17:16;14.06;;;9.12;;
56680;SDS011;42558;52.388;13.390;2023-07-09T08:19:51;12.54;;;9.31;;
56680;SDS011;42558;52.388;13.390;2023-07-09T08:22:22;12.35;;;9.31;;
56680;SDS011;42558;52.388;13.390;2023-07-09T08:24:52;12.16;;;10.64;;
56680;SDS011;42558;52.388;13.390;2023-07-09T08:27:22;12.16;;;9.12;;
56680;SDS011;42558;52.388;13.390;2023-07-09T08:29:51;15.39;;;10.64;;
56680;SDS011;42558;52.388;13.390;2023-07-09T08:32:19;11.59;;;9.31;;
56680;SDS011;42558;52.388;13.390;2023-07-09T08:34:48;13.11;;;9.69;;
56680;SDS011;42558;52.388;13.390;2023-07-09T08:37:38;10.64;;;9.12;;
56680;SDS011;42558;52.388;13.390;2023-07-09T08:40:12;11.78;;;9.31;;
56680;SDS011;42558;52.388;13.390;2023-07-09T08:42:46;9.88;;;8.74;;
56680;SDS011;42558;52.388;13.390;2023-07-09T08:48:29;11.21;;;9.12;;
56680;SDS011;42558;52.388;13.390;2023-07-09T08:51:36;11.40;;;8.36;;
56680;SDS011;42558;52.388;13.390;2023-07-09T08:54:22;13.68;;;9.12;;
56680;SDS011;42558;52.388;13.390;2023-07-09T08:57:01;11.02;;;8.36;;
56680;SDS011;42558;52.388;13.390;2023-07-09T08:59:44;12.35;;;8.36;;
56680;SDS011;42558;52.388;13.390;2023-07-09T09:02:27;11.78;;;8.36;;
56680;SDS011;42558;52.388;13.390;2023-07-09T09:05:03;11.21;;;8.55;;
56680;SDS011;42558;52.388;13.390;2023-07-09T09:07:42;11.97;;;8.36;;
56680;SDS011;42558;52.388;13.390;2023-07-09T09:10:21;9.88;;;7.79;;
56680;SDS011;42558;52.388;13.390;2023-07-09T09:13:05;11.78;;;7.41;;
56680;SDS011;42558;52.388;13.390;2023-07-09T09:15:41;9.69;;;7.60;;
56680;SDS011;42558;52.388;13.390;2023-07-09T09:18:24;11.59;;;7.41;;
56680;SDS011;42558;52.388;13.390;2023-07-09T09:21:34;11.59;;;7.41;;
56680;SDS011;42558;52.388;13.390;2023-07-09T09:27:41;10.83;;;8.55;;
56680;SDS011;42558;52.388;13.390;2023-07-09T09:30:14;11.97;;;8.55;;
56680;SDS011;42558;52.388;13.390;2023-07-09T09:32:50;11.78;;;8.74;;
56680;SDS011;42558;52.388;13.390;2023-07-09T09:35:39;10.45;;;7.41;;
56680;SDS011;42558;52.388;13.390;2023-07-09T09:38:17;9.50;;;7.41;;
56680;SDS011;42558;52.388;13.390;2023-07-09T09:40:50;11.21;;;7.98;;
56680;SDS011;42558;52.388;13.390;2023-07-09T09:43:20;9.12;;;7.60;;
56680;SDS011;42558;52.388;13.390;2023-07-09T09:45:53;10.45;;;7.79;;
56680;SDS011;42558;52.388;13.390;2023-07-09T09:48:31;9.88;;;8.17;;
56680;SDS011;42558;52.388;13.390;2023-07-09T09:51:05;12.16;;;8.74;;
56680;SDS011;42558;52.388;13.390;2023-07-09T09:53:40;11.21;;;8.17;;
56680;SDS011;42558;52.388;13.390;2023-07-09T09:56:18;10.26;;;7.98;;
56680;SDS011;42558;52.388;13.390;2023-07-09T09:58:56;10.45;;;8.55;;
56680;SDS011;42558;52.388;13.390;2023-07-09T10:01:34;12.16;;;7.79;;
56680;SDS011;42558;52.388;13.390;2023-07-09T10:04:05;10.45;;;8.17;;
56680;SDS011;42558;52.388;13.390;2023-07-09T10:06:38;11.97;;;8.36;;
56680;SDS011;42558;52.388;13.390;2023-07-09T10:09:46;10.64;;;8.74;;
56680;SDS011;42558;52.388;13.390;2023-07-09T10:15:38;10.26;;;8.17;;
56680;SDS011;42558;52.388;13.390;2023-07-09T10:24:07;11.02;;;9.12;;
56680;SDS011;42558;52.388;13.390;2023-07-09T10:27:06;11.02;;;7.98;;
56680;SDS011;42558;52.388;13.390;2023-07-09T10:30:01;9.31;;;7.60;;
56680;SDS011;42558;52.388;13.390;2023-07-09T10:33:31;10.26;;;7.41;;
56680;SDS011;42558;52.388;13.390;2023-07-09T10:36:01;10.83;;;8.55;;
56680;SDS011;42558;52.388;13.390;2023-07-09T10:39:02;11.97;;;8.55;;
56680;SDS011;42558;52.388;13.390;2023-07-09T10:41:40;11.40;;;7.98;;
56680;SDS011;42558;52.388;13.390;2023-07-09T10:44:17;10.64;;;7.22;;
56680;SDS011;42558;52.388;13.390;2023-07-09T10:47:02;9.88;;;7.60;;
56680;SDS011;42558;52.388;13.390;2023-07-09T10:49:40;9.50;;;7.41;;
56680;SDS011;42558;52.388;13.390;2023-07-09T10:52:23;11.97;;;7.79;;
56680;SDS011;42558;52.388;13.390;2023-07-09T10:58:14;10.45;;;8.17;;
56680;SDS011;42558;52.388;13.390;2023-07-09T11:00:54;13.11;;;7.98;;
56680;SDS011;42558;52.388;13.390;2023-07-09T11:03:34;11.40;;;7.79;;
56680;SDS011;42558;52.388;13.390;2023-07-09T11:06:16;9.12;;;7.03;;
56680;SDS011;42558;52.388;13.390;2023-07-09T11:08:56;11.40;;;7.98;;
56680;SDS011;42558;52.388;13.390;2023-07-09T11:11:35;11.59;;;8.74;;
56680;SDS011;42558;52.388;13.390;2023-07-09T11:15:10;12.16;;;8.36;;
56680;SDS011;42558;52.388;13.390;2023-07-09T11:17:23;13.87;;;9.88;;
56680;SDS011;42558;52.388;13.390;2023-07-09T11:19:55;10.45;;;7.60;;
56680;SDS011;42558;52.388;13.390;2023-07-09T11:22:40;13.11;;;8.55;;
56680;SDS011;42558;52.388;13.390;2023-07-09T11:25:13;10.07;;;8.17;;
56680;SDS011;42558;52.388;13.390;2023-07-09T11:27:52;11.59;;;8.93;;
56680;SDS011;42558;52.388;13.390;2023-07-09T11:30:31;9.88;;;8.17;;
56680;SDS011;42558;52.388;13.390;2023-07-09T11:33:27;12.54;;;8.74;;
56680;SDS011;42558;52.388;13.390;2023-07-09T11:36:13;11.21;;;8.55;;
56680;SDS011;42558;52.388;13.390;2023-07-09T11:38:53;12.16;;;8.55;;
56680;SDS011;42558;52.388;13.390;2023-07-09T11:44:17;11.21;;;8.17;;
56680;SDS011;42558;52.388;13.390;2023-07-09T11:50:02;9.88;;;8.74;;
56680;SDS011;42558;52.388;13.390;2023-07-09T11:52:58;11.59;;;8.36;;
56680;SDS011;42558;52.388;13.390;2023-07-09T11:55:42;11.78;;;8.36;;
56680;SDS011;42558;52.388;13.390;2023-07-09T11:58:16;12.16;;;8.36;;
56680;SDS011;42558;52.388;13.390;2023-07-09T12:00:50;11.21;;;8.74;;
56680;SDS011;42558;52.388;13.390;2023-07-09T12:03:25;11.78;;;9.12;;
56680;SDS011;42558;52.388;13.390;2023-07-09T12:06:03;11.97;;;8.55;;
56680;SDS011;42558;52.388;13.390;2023-07-09T12:08:37;11.97;;;8.55;;
56680;SDS011;42558;52.388;13.390;2023-07-09T12:11:37;10.45;;;8.74;;
56680;SDS011;42558;52.388;13.390;2023-07-09T12:14:19;10.64;;;8.93;;
56680;SDS011;42558;52.388;13.390;2023-07-09T12:16:53;11.97;;;8.55;;
56680;SDS011;42558;52.388;13.390;2023-07-09T12:19:24;10.45;;;8.74;;
56680;SDS011;42558;52.388;13.390;2023-07-09T12:22:00;11.02;;;8.93;;
56680;SDS011;42558;52.388;13.390;2023-07-09T12:24:34;12.54;;;9.69;;
56680;SDS011;42558;52.388;13.390;2023-07-09T12:27:19;10.07;;;8.17;;
56680;SDS011;42558;52.388;13.390;2023-07-09T12:29:56;12.35;;;8.55;;
56680;SDS011;42558;52.388;13.390;2023-07-09T12:32:26;11.78;;;8.36;;
56680;SDS011;42558;52.388;13.390;2023-07-09T12:34:58;9.69;;;7.98;;
56680;SDS011;42558;52.388;13.390;2023-07-09T12:37:30;12.92;;;8.93;;
56680;SDS011;42558;52.388;13.390;2023-07-09T12:40:01;13.87;;;9.31;;
56680;SDS011;42558;52.388;13.390;2023-07-09T12:42:34;11.21;;;8.55;;
56680;SDS011;42558;52.388;13.390;2023-07-09T12:45:14;11.21;;;8.36;;
56680;SDS011;42558;52.388;13.390;2023-07-09T12:47:47;10.83;;;9.31;;
56680;SDS011;42558;52.388;13.390;2023-07-09T12:50:30;13.11;;;9.12;;
56680;SDS011;42558;52.388;13.390;2023-07-09T12:53:24;12.35;;;8.55;;
56680;SDS011;42558;52.388;13.390;2023-07-09T12:55:58;9.69;;;8.36;;
56680;SDS011;42558;52.388;13.390;2023-07-09T12:58:33;11.78;;;8.74;;
56680;SDS011;42558;52.388;13.390;2023-07-09T13:01:16;11.02;;;8.74;;
56680;SDS011;42558;52.388;13.390;2023-07-09T13:03:56;15.20;;;9.31;;
56680;SDS011;42558;52.388;13.390;2023-07-09T13:06:30;12.54;;;9.12;;
56680;SDS011;42558;52.388;13.390;2023-07-09T13:09:34;11.02;;;8.55;;
56680;SDS011;42558;52.388;13.390;2023-07-09T13:12:04;11.21;;;8.93;;
56680;SDS011;42558;52.388;13.390;2023-07-09T13:14:34;10.07;;;8.55;;
56680;SDS011;42558;52.388;13.390;2023-07-09T13:17:06;11.78;;;8.36;;
56680;SDS011;42558;52.388;13.390;2023-07-09T13:19:38;13.11;;;8.74;;
56680;SDS011;42558;52.388;13.390;2023-07-09T13:22:13;11.21;;;8.36;;
56680;SDS011;42558;52.388;13.390;2023-07-09T13:24:46;11.97;;;8.93;;
56680;SDS011;42558;52.388;13.390;2023-07-09T13:27:16;12.73;;;9.69;;
56680;SDS011;42558;52.388;13.390;2023-07-09T13:29:44;13.68;;;8.36;;
56680;SDS011;42558;52.388;13.390;2023-07-09T13:32:16;10.64;;;8.74;;
56680;SDS011;42558;52.388;13.390;2023-07-09T13:34:44;11.97;;;8.74;;
56680;SDS011;42558;52.388;13.390;2023-07-09T13:37:15;12.92;;;9.31;;
56680;SDS011;42558;52.388;13.390;2023-07-09T13:39:46;10.83;;;8.55;;
56680;SDS011;42558;52.388;13.390;2023-07-09T13:42:17;11.97;;;8.36;;
56680;SDS011;42558;52.388;13.390;2023-07-09T13:44:47;10.45;;;9.12;;
56680;SDS011;42558;52.388;13.390;2023-07-09T13:47:18;13.30;;;9.50;;
56680;SDS011;42558;52.388;13.390;2023-07-09T13:49:48;14.06;;;9.31;;
56680;SDS011;42558;52.388;13.390;2023-07-09T13:52:21;11.78;;;9.69;;
56680;SDS011;42558;52.388;13.390;2023-07-09T13:54:54;10.64;;;8.55;;
56680;SDS011;42558;52.388;13.390;2023-07-09T13:57:24;11.02;;;9.12;;
56680;SDS011;42558;52.388;13.390;2023-07-09T13:59:54;10.83;;;9.50;;
56680;SDS011;42558;52.388;13.390;2023-07-09T14:02:29;11.21;;;9.50;;
56680;SDS011;42558;52.388;13.390;2023-07-09T14:05:04;14.06;;;9.31;;
56680;SDS011;42558;52.388;13.390;2023-07-09T14:07:38;13.68;;;9.31;;
56680;SDS011;42558;52.388;13.390;2023-07-09T14:10:13;13.11;;;8.74;;
56680;SDS011;42558;52.388;13.390;2023-07-09T14:12:47;10.07;;;8.36;;
56680;SDS011;42558;52.388;13.390;2023-07-09T14:15:20;10.64;;;8.55;;
56680;SDS011;42558;52.388;13.390;2023-07-09T14:17:50;10.83;;;8.36;;
56680;SDS011;42558;52.388;13.390;2023-07-09T14:20:22;12.16;;;9.31;;
56680;SDS011;42558;52.388;13.390;2023-07-09T14:22:52;10.64;;;9.12;;
56680;SDS011;42558;52.388;13.390;2023-07-09T14:25:24;14.25;;;9.69;;
56680;SDS011;42558;52.388;13.390;2023-07-09T14:27:55;13.11;;;9.12;;
56680;SDS011;42558;52.388;13.390;2023-07-09T14:30:25;12.73;;;9.50;;
56680;SDS011;42558;52.388;13.390;2023-07-09T14:32:58;14.06;;;8.55;;
56680;SDS011;42558;52.388;13.390;2023-07-09T14:35:28;12.35;;;8.93;;
56680;SDS011;42558;52.388;13.390;2023-07-09T14:37:58;11.78;;;9.50;;
56680;SDS011;42558;52.388;13.390;2023-07-09T14:40:29;11.02;;;8.93;;
56680;SDS011;42558;52.388;13.390;2023-07-09T14:42:59;14.06;;;9.69;;
56680;SDS011;42558;52.388;13.390;2023-07-09T14:45:30;13.30;;;8.36;;
56680;SDS011;42558;52.388;13.390;2023-07-09T14:48:01;10.26;;;8.36;;
56680;SDS011;42558;52.388;13.390;2023-07-09T14:50:47;11.59;;;8.93;;
56680;SDS011;42558;52.388;13.390;2023-07-09T14:53:25;15.01;;;8.93;;
56680;SDS011;42558;52.388;13.390;2023-07-09T14:55:56;12.35;;;9.69;;
56680;SDS011;42558;52.388;13.390;2023-07-09T14:58:24;10.64;;;8.74;;
56680;SDS011;42558;52.388;13.390;2023-07-09T15:00:54;12.92;;;9.12;;
56680;SDS011;42558;52.388;13.390;2023-07-09T15:03:25;13.11;;;9.69;;
56680;SDS011;42558;52.388;13.390;2023-07-09T15:05:56;11.02;;;8.93;;
56680;SDS011;42558;52.388;13.390;2023-07-09T15:08:26;13.11;;;9.50;;
56680;SDS011;42558;52.388;13.390;2023-07-09T15:10:56;12.35;;;7.98;;
56680;SDS011;42558;52.388;13.390;2023-07-09T15:13:34;12.54;;;9.50;;
56680;SDS011;42558;52.388;13.390;2023-07-09T15:16:05;10.83;;;9.31;;
56680;SDS011;42558;52.388;13.390;2023-07-09T15:18:33;12.16;;;9.31;;
56680;SDS011;42558;52.388;13.390;2023-07-09T15:21:05;13.11;;;10.45;;
56680;SDS011;42558;52.388;13.390;2023-07-09T15:23:37;13.11;;;8.93;;
56680;SDS011;42558;52.388;13.390;2023-07-09T15:26:14;11.21;;;9.12;;